Jacksonboro, South Carolina
Current Conditions -  °F | °C
As of 3:55 PM on Tuesday 21 Oct 2014 (Local Time) from KRBW Reporting Station
Clear Clear  
Wind Chill: 79°   Ceiling: Unl
Heat Index: 79°   Visibility: 10mi
Dew Point: 41°   Wind: 12mph
Humidity: 26%   Direction: 260°W
Pressure: 29.88"   Gusts: NA
Location:  32.77°N, 80.45°W
Report Text: KRBW 211955Z AUTO 26010KT 10SM CLR 26/05 A2988 RMK AO2
Loading
Personal Weather Stations






























Interactive Weather Map
Tropical Storm Tracking
New forecast layout! Learn more

10-Day Weather Forecast

Advertisements
Track Severe Weather on mobile